sensor_id;sensor_type;location;lat;lon;timestamp;temperature;humidity
56240;DHT22;42154;51.992;5.896;2023-02-28T00:01:10;2.00;99.90
56240;DHT22;42154;51.992;5.896;2023-02-28T00:03:36;2.10;99.90
56240;DHT22;42154;51.992;5.896;2023-02-28T00:06:03;2.10;99.90
56240;DHT22;42154;51.992;5.896;2023-02-28T00:08:29;2.20;99.90
56240;DHT22;42154;51.992;5.896;2023-02-28T00:10:55;2.20;99.90
56240;DHT22;42154;51.992;5.896;2023-02-28T00:13:21;2.20;99.90
56240;DHT22;42154;51.992;5.896;2023-02-28T00:15:47;2.30;99.90
56240;DHT22;42154;51.992;5.896;2023-02-28T00:18:12;2.30;99.90
56240;DHT22;42154;51.992;5.896;2023-02-28T00:20:39;2.30;99.90
56240;DHT22;42154;51.992;5.896;2023-02-28T00:23:04;2.30;99.90
56240;DHT22;42154;51.992;5.896;2023-02-28T00:25:30;2.40;99.90
56240;DHT22;42154;51.992;5.896;2023-02-28T00:27:56;2.50;99.90
56240;DHT22;42154;51.992;5.896;2023-02-28T00:30:22;2.40;99.90
56240;DHT22;42154;51.992;5.896;2023-02-28T00:32:49;2.40;99.90
56240;DHT22;42154;51.992;5.896;2023-02-28T00:35:17;2.40;99.90
56240;DHT22;42154;51.992;5.896;2023-02-28T00:37:43;2.50;99.90
56240;DHT22;42154;51.992;5.896;2023-02-28T00:40:10;2.50;99.90
56240;DHT22;42154;51.992;5.896;2023-02-28T00:42:37;2.60;99.90
56240;DHT22;42154;51.992;5.896;2023-02-28T00:45:03;2.60;99.90
56240;DHT22;42154;51.992;5.896;2023-02-28T00:47:30;2.60;99.90
56240;DHT22;42154;51.992;5.896;2023-02-28T00:49:56;2.60;99.90
56240;DHT22;42154;51.992;5.896;2023-02-28T00:52:21;2.60;99.90
56240;DHT22;42154;51.992;5.896;2023-02-28T00:54:47;2.60;99.90
56240;DHT22;42154;51.992;5.896;2023-02-28T00:57:14;2.60;99.90
56240;DHT22;42154;51.992;5.896;2023-02-28T00:59:40;2.60;99.90
56240;DHT22;42154;51.992;5.896;2023-02-28T01:02:05;2.70;99.90
56240;DHT22;42154;51.992;5.896;2023-02-28T01:04:31;2.70;99.90
56240;DHT22;42154;51.992;5.896;2023-02-28T01:07:00;2.70;99.90
56240;DHT22;42154;51.992;5.896;2023-02-28T01:09:28;2.70;99.90
56240;DHT22;42154;51.992;5.896;2023-02-28T01:11:53;2.70;99.90
56240;DHT22;42154;51.992;5.896;2023-02-28T01:14:19;2.80;99.90
56240;DHT22;42154;51.992;5.896;2023-02-28T01:16:45;2.80;99.90
56240;DHT22;42154;51.992;5.896;2023-02-28T01:19:11;2.80;99.90
56240;DHT22;42154;51.992;5.896;2023-02-28T01:21:38;2.80;99.90
56240;DHT22;42154;51.992;5.896;2023-02-28T01:24:05;2.80;99.90
56240;DHT22;42154;51.992;5.896;2023-02-28T01:26:31;2.80;99.90
56240;DHT22;42154;51.992;5.896;2023-02-28T01:28:57;2.70;99.90
56240;DHT22;42154;51.992;5.896;2023-02-28T01:31:25;2.80;99.90
56240;DHT22;42154;51.992;5.896;2023-02-28T01:33:51;2.70;99.90
56240;DHT22;42154;51.992;5.896;2023-02-28T01:36:22;2.80;99.90
56240;DHT22;42154;51.992;5.896;2023-02-28T01:38:49;2.80;99.90
56240;DHT22;42154;51.992;5.896;2023-02-28T01:41:20;2.70;99.90
56240;DHT22;42154;51.992;5.896;2023-02-28T01:46:13;2.80;99.90
56240;DHT22;42154;51.992;5.896;2023-02-28T01:48:43;2.80;99.90
56240;DHT22;42154;51.992;5.896;2023-02-28T01:51:21;2.80;99.90
56240;DHT22;42154;51.992;5.896;2023-02-28T01:53:57;2.80;99.90
56240;DHT22;42154;51.992;5.896;2023-02-28T01:56:29;2.80;99.90
56240;DHT22;42154;51.992;5.896;2023-02-28T01:58:56;2.80;99.90
56240;DHT22;42154;51.992;5.896;2023-02-28T02:01:23;2.80;99.90
56240;DHT22;42154;51.992;5.896;2023-02-28T02:03:58;2.80;99.90
56240;DHT22;42154;51.992;5.896;2023-02-28T02:06:27;2.90;99.90
56240;DHT22;42154;51.992;5.896;2023-02-28T02:08:55;2.80;99.90
56240;DHT22;42154;51.992;5.896;2023-02-28T02:11:22;2.80;99.90
56240;DHT22;42154;51.992;5.896;2023-02-28T02:25:39;2.80;99.90
56240;DHT22;42154;51.992;5.896;2023-02-28T02:36:27;2.80;99.90
56240;DHT22;42154;51.992;5.896;2023-02-28T02:39:13;2.80;99.90
56240;DHT22;42154;51.992;5.896;2023-02-28T02:41:53;2.80;99.90
56240;DHT22;42154;51.992;5.896;2023-02-28T02:44:47;2.80;99.90
56240;DHT22;42154;51.992;5.896;2023-02-28T02:47:21;2.90;99.90
56240;DHT22;42154;51.992;5.896;2023-02-28T02:49:55;2.90;99.90
56240;DHT22;42154;51.992;5.896;2023-02-28T02:52:28;2.90;99.90
56240;DHT22;42154;51.992;5.896;2023-02-28T02:54:57;2.90;99.90
56240;DHT22;42154;51.992;5.896;2023-02-28T02:57:37;2.90;99.90
56240;DHT22;42154;51.992;5.896;2023-02-28T03:00:07;3.00;99.90
56240;DHT22;42154;51.992;5.896;2023-02-28T03:02:36;3.00;99.90
56240;DHT22;42154;51.992;5.896;2023-02-28T03:05:12;3.00;99.90
56240;DHT22;42154;51.992;5.896;2023-02-28T03:07:40;3.00;99.90
56240;DHT22;42154;51.992;5.896;2023-02-28T03:10:35;3.00;99.90
56240;DHT22;42154;51.992;5.896;2023-02-28T03:16:07;3.00;99.90
56240;DHT22;42154;51.992;5.896;2023-02-28T03:19:04;3.00;99.90
56240;DHT22;42154;51.992;5.896;2023-02-28T03:27:17;3.00;99.90
56240;DHT22;42154;51.992;5.896;2023-02-28T03:30:15;3.00;99.90
56240;DHT22;42154;51.992;5.896;2023-02-28T03:32:44;3.00;99.90
56240;DHT22;42154;51.992;5.896;2023-02-28T03:35:26;3.00;99.90
56240;DHT22;42154;51.992;5.896;2023-02-28T03:38:03;3.10;99.90
56240;DHT22;42154;51.992;5.896;2023-02-28T03:40:32;3.10;99.90
56240;DHT22;42154;51.992;5.896;2023-02-28T03:43:20;3.10;99.90
56240;DHT22;42154;51.992;5.896;2023-02-28T03:45:48;3.10;99.90
56240;DHT22;42154;51.992;5.896;2023-02-28T03:48:17;3.00;99.90
56240;DHT22;42154;51.992;5.896;2023-02-28T03:50:47;3.10;99.90
56240;DHT22;42154;51.992;5.896;2023-02-28T03:53:30;3.10;99.90
56240;DHT22;42154;51.992;5.896;2023-02-28T03:56:09;3.10;99.90
56240;DHT22;42154;51.992;5.896;2023-02-28T03:59:02;3.10;99.90
56240;DHT22;42154;51.992;5.896;2023-02-28T04:01:52;3.10;99.90
56240;DHT22;42154;51.992;5.896;2023-02-28T04:04:18;3.10;99.90
56240;DHT22;42154;51.992;5.896;2023-02-28T04:06:44;3.10;99.90
56240;DHT22;42154;51.992;5.896;2023-02-28T04:09:13;3.10;99.90
56240;DHT22;42154;51.992;5.896;2023-02-28T04:11:48;3.20;99.90
56240;DHT22;42154;51.992;5.896;2023-02-28T04:14:17;3.20;99.90
56240;DHT22;42154;51.992;5.896;2023-02-28T04:16:43;3.20;99.90
56240;DHT22;42154;51.992;5.896;2023-02-28T04:19:11;3.10;99.90
56240;DHT22;42154;51.992;5.896;2023-02-28T04:21:39;3.10;99.90
56240;DHT22;42154;51.992;5.896;2023-02-28T04:24:10;3.20;99.90
56240;DHT22;42154;51.992;5.896;2023-02-28T04:26:41;3.10;99.90
56240;DHT22;42154;51.992;5.896;2023-02-28T04:29:09;3.10;99.90
56240;DHT22;42154;51.992;5.896;2023-02-28T04:31:34;3.10;99.90
56240;DHT22;42154;51.992;5.896;2023-02-28T04:34:00;3.10;99.90
56240;DHT22;42154;51.992;5.896;2023-02-28T04:36:27;3.10;99.90
56240;DHT22;42154;51.992;5.896;2023-02-28T04:38:53;3.00;99.90
56240;DHT22;42154;51.992;5.896;2023-02-28T04:41:19;3.00;99.90
56240;DHT22;42154;51.992;5.896;2023-02-28T04:43:45;3.00;99.90
56240;DHT22;42154;51.992;5.896;2023-02-28T04:46:10;3.00;99.90
56240;DHT22;42154;51.992;5.896;2023-02-28T04:48:38;2.90;99.90
56240;DHT22;42154;51.992;5.896;2023-02-28T04:51:10;3.00;99.90
56240;DHT22;42154;51.992;5.896;2023-02-28T04:53:38;2.90;99.90
56240;DHT22;42154;51.992;5.896;2023-02-28T04:56:05;2.90;99.90
56240;DHT22;42154;51.992;5.896;2023-02-28T04:58:32;2.80;99.90
56240;DHT22;42154;51.992;5.896;2023-02-28T05:01:06;2.80;99.90
56240;DHT22;42154;51.992;5.896;2023-02-28T05:03:41;2.80;99.90
56240;DHT22;42154;51.992;5.896;2023-02-28T05:06:08;2.80;99.90
56240;DHT22;42154;51.992;5.896;2023-02-28T05:08:33;2.80;99.90
56240;DHT22;42154;51.992;5.896;2023-02-28T05:10:59;2.70;99.90
56240;DHT22;42154;51.992;5.896;2023-02-28T05:13:27;2.80;99.90
56240;DHT22;42154;51.992;5.896;2023-02-28T05:15:53;2.70;99.90
56240;DHT22;42154;51.992;5.896;2023-02-28T05:18:19;2.70;99.90
56240;DHT22;42154;51.992;5.896;2023-02-28T05:20:45;2.70;99.90
56240;DHT22;42154;51.992;5.896;2023-02-28T05:23:12;2.70;99.90
56240;DHT22;42154;51.992;5.896;2023-02-28T05:25:39;2.70;99.90
56240;DHT22;42154;51.992;5.896;2023-02-28T05:28:06;2.70;99.90
56240;DHT22;42154;51.992;5.896;2023-02-28T05:30:32;2.70;99.90
56240;DHT22;42154;51.992;5.896;2023-02-28T05:32:58;2.60;99.90
56240;DHT22;42154;51.992;5.896;2023-02-28T05:35:24;2.70;99.90
56240;DHT22;42154;51.992;5.896;2023-02-28T05:37:50;2.70;99.90
56240;DHT22;42154;51.992;5.896;2023-02-28T05:40:17;2.60;99.90
56240;DHT22;42154;51.992;5.896;2023-02-28T05:42:42;2.60;99.90
56240;DHT22;42154;51.992;5.896;2023-02-28T05:45:09;2.70;99.90
56240;DHT22;42154;51.992;5.896;2023-02-28T05:47:35;2.60;99.90
56240;DHT22;42154;51.992;5.896;2023-02-28T05:50:02;2.70;99.90
56240;DHT22;42154;51.992;5.896;2023-02-28T05:52:28;2.60;99.90
56240;DHT22;42154;51.992;5.896;2023-02-28T05:54:55;2.60;99.90
56240;DHT22;42154;51.992;5.896;2023-02-28T05:57:22;2.60;99.90
56240;DHT22;42154;51.992;5.896;2023-02-28T05:59:47;2.60;99.90
56240;DHT22;42154;51.992;5.896;2023-02-28T06:02:15;2.60;99.90
56240;DHT22;42154;51.992;5.896;2023-02-28T06:04:41;2.60;99.90
56240;DHT22;42154;51.992;5.896;2023-02-28T06:07:08;2.70;99.90
56240;DHT22;42154;51.992;5.896;2023-02-28T06:09:34;2.60;99.90
56240;DHT22;42154;51.992;5.896;2023-02-28T06:12:01;2.70;99.90
56240;DHT22;42154;51.992;5.896;2023-02-28T06:14:29;2.70;99.90
56240;DHT22;42154;51.992;5.896;2023-02-28T06:16:57;2.70;99.90
56240;DHT22;42154;51.992;5.896;2023-02-28T06:19:23;2.80;99.90
56240;DHT22;42154;51.992;5.896;2023-02-28T06:21:52;2.70;99.90
56240;DHT22;42154;51.992;5.896;2023-02-28T06:24:21;2.70;99.90
56240;DHT22;42154;51.992;5.896;2023-02-28T06:26:48;2.70;99.90
56240;DHT22;42154;51.992;5.896;2023-02-28T06:29:15;2.70;99.90
56240;DHT22;42154;51.992;5.896;2023-02-28T06:31:45;2.70;99.90
56240;DHT22;42154;51.992;5.896;2023-02-28T06:34:12;2.80;99.90
56240;DHT22;42154;51.992;5.896;2023-02-28T06:36:39;2.90;99.90
56240;DHT22;42154;51.992;5.896;2023-02-28T06:39:05;2.80;99.90
56240;DHT22;42154;51.992;5.896;2023-02-28T06:41:31;2.80;99.90
56240;DHT22;42154;51.992;5.896;2023-02-28T06:44:15;2.80;99.90
56240;DHT22;42154;51.992;5.896;2023-02-28T06:46:42;2.90;99.90
56240;DHT22;42154;51.992;5.896;2023-02-28T06:49:08;3.00;99.90
56240;DHT22;42154;51.992;5.896;2023-02-28T06:51:36;3.00;99.90
56240;DHT22;42154;51.992;5.896;2023-02-28T06:54:02;3.10;99.90
56240;DHT22;42154;51.992;5.896;2023-02-28T06:56:28;3.10;99.90
56240;DHT22;42154;51.992;5.896;2023-02-28T06:58:54;3.10;99.90
56240;DHT22;42154;51.992;5.896;2023-02-28T07:01:20;3.10;99.90
56240;DHT22;42154;51.992;5.896;2023-02-28T07:03:46;3.20;99.90
56240;DHT22;42154;51.992;5.896;2023-02-28T07:06:12;3.20;99.90
56240;DHT22;42154;51.992;5.896;2023-02-28T07:08:38;3.20;99.90
56240;DHT22;42154;51.992;5.896;2023-02-28T07:11:05;3.10;99.90
56240;DHT22;42154;51.992;5.896;2023-02-28T07:13:31;3.20;99.90
56240;DHT22;42154;51.992;5.896;2023-02-28T07:18:24;3.30;99.90
56240;DHT22;42154;51.992;5.896;2023-02-28T07:20:51;3.30;99.90
56240;DHT22;42154;51.992;5.896;2023-02-28T07:23:17;3.30;99.90
56240;DHT22;42154;51.992;5.896;2023-02-28T07:25:43;3.30;99.90
56240;DHT22;42154;51.992;5.896;2023-02-28T07:28:09;3.50;99.90
56240;DHT22;42154;51.992;5.896;2023-02-28T07:30:35;3.40;99.90
56240;DHT22;42154;51.992;5.896;2023-02-28T07:33:00;3.50;99.90
56240;DHT22;42154;51.992;5.896;2023-02-28T07:35:26;3.50;99.90
56240;DHT22;42154;51.992;5.896;2023-02-28T07:37:52;3.50;99.90
56240;DHT22;42154;51.992;5.896;2023-02-28T07:40:18;3.50;99.90
56240;DHT22;42154;51.992;5.896;2023-02-28T07:42:44;3.50;99.90
56240;DHT22;42154;51.992;5.896;2023-02-28T07:45:10;3.50;99.90
56240;DHT22;42154;51.992;5.896;2023-02-28T07:47:41;3.50;99.90
56240;DHT22;42154;51.992;5.896;2023-02-28T07:50:09;3.50;99.90
56240;DHT22;42154;51.992;5.896;2023-02-28T07:52:39;3.50;99.90
56240;DHT22;42154;51.992;5.896;2023-02-28T07:55:07;3.60;99.90
56240;DHT22;42154;51.992;5.896;2023-02-28T07:57:33;3.60;99.90
56240;DHT22;42154;51.992;5.896;2023-02-28T07:59:59;3.60;99.90
56240;DHT22;42154;51.992;5.896;2023-02-28T08:02:25;3.50;99.90
56240;DHT22;42154;51.992;5.896;2023-02-28T08:04:51;3.60;99.90
56240;DHT22;42154;51.992;5.896;2023-02-28T08:07:17;3.50;99.90
56240;DHT22;42154;51.992;5.896;2023-02-28T08:09:44;3.60;99.90
56240;DHT22;42154;51.992;5.896;2023-02-28T08:12:10;3.40;99.90
56240;DHT22;42154;51.992;5.896;2023-02-28T08:14:36;3.40;99.90
56240;DHT22;42154;51.992;5.896;2023-02-28T08:17:03;3.50;99.90
56240;DHT22;42154;51.992;5.896;2023-02-28T08:19:29;3.50;99.80
56240;DHT22;42154;51.992;5.896;2023-02-28T08:21:55;3.50;99.50
56240;DHT22;42154;51.992;5.896;2023-02-28T08:24:21;3.60;99.50
56240;DHT22;42154;51.992;5.896;2023-02-28T08:26:47;3.70;99.20
56240;DHT22;42154;51.992;5.896;2023-02-28T08:29:12;3.70;99.10
56240;DHT22;42154;51.992;5.896;2023-02-28T08:31:38;3.70;98.90
56240;DHT22;42154;51.992;5.896;2023-02-28T08:34:12;3.70;98.40
56240;DHT22;42154;51.992;5.896;2023-02-28T08:36:39;3.70;97.80
56240;DHT22;42154;51.992;5.896;2023-02-28T08:39:06;3.70;97.10
56240;DHT22;42154;51.992;5.896;2023-02-28T08:41:32;3.70;96.10
56240;DHT22;42154;51.992;5.896;2023-02-28T08:43:58;3.70;96.50
56240;DHT22;42154;51.992;5.896;2023-02-28T08:46:24;3.70;96.40
56240;DHT22;42154;51.992;5.896;2023-02-28T08:48:54;3.80;95.50
56240;DHT22;42154;51.992;5.896;2023-02-28T08:51:21;3.80;94.70
56240;DHT22;42154;51.992;5.896;2023-02-28T08:53:57;3.80;94.10
56240;DHT22;42154;51.992;5.896;2023-02-28T08:56:23;3.80;93.80
56240;DHT22;42154;51.992;5.896;2023-02-28T08:58:50;3.80;93.10
56240;DHT22;42154;51.992;5.896;2023-02-28T09:01:17;3.80;93.00
56240;DHT22;42154;51.992;5.896;2023-02-28T09:03:44;3.80;92.60
56240;DHT22;42154;51.992;5.896;2023-02-28T09:06:11;3.80;92.70
56240;DHT22;42154;51.992;5.896;2023-02-28T09:08:38;3.80;92.60
56240;DHT22;42154;51.992;5.896;2023-02-28T09:11:04;3.90;91.70
56240;DHT22;42154;51.992;5.896;2023-02-28T09:13:31;3.90;91.90
56240;DHT22;42154;51.992;5.896;2023-02-28T09:15:58;3.90;92.00
56240;DHT22;42154;51.992;5.896;2023-02-28T09:18:25;4.00;91.80
56240;DHT22;42154;51.992;5.896;2023-02-28T09:20:51;4.00;91.90
56240;DHT22;42154;51.992;5.896;2023-02-28T09:23:17;4.00;92.20
56240;DHT22;42154;51.992;5.896;2023-02-28T09:25:47;4.10;92.20
56240;DHT22;42154;51.992;5.896;2023-02-28T09:28:14;4.20;92.30
56240;DHT22;42154;51.992;5.896;2023-02-28T09:30:48;4.20;91.60
56240;DHT22;42154;51.992;5.896;2023-02-28T09:33:15;4.20;91.70
56240;DHT22;42154;51.992;5.896;2023-02-28T09:35:41;4.30;90.30
56240;DHT22;42154;51.992;5.896;2023-02-28T09:38:08;4.20;87.90
56240;DHT22;42154;51.992;5.896;2023-02-28T09:40:58;4.30;88.00
56240;DHT22;42154;51.992;5.896;2023-02-28T09:43:38;4.30;87.70
56240;DHT22;42154;51.992;5.896;2023-02-28T09:46:08;4.30;87.70
56240;DHT22;42154;51.992;5.896;2023-02-28T09:48:41;4.30;88.50
56240;DHT22;42154;51.992;5.896;2023-02-28T09:52:12;4.30;89.00
56240;DHT22;42154;51.992;5.896;2023-02-28T09:54:17;4.40;85.70
56240;DHT22;42154;51.992;5.896;2023-02-28T09:56:47;4.30;85.40
56240;DHT22;42154;51.992;5.896;2023-02-28T10:04:51;4.40;84.50
56240;DHT22;42154;51.992;5.896;2023-02-28T10:07:37;4.40;84.20
56240;DHT22;42154;51.992;5.896;2023-02-28T10:13:05;4.50;85.70
56240;DHT22;42154;51.992;5.896;2023-02-28T10:15:34;4.50;86.20
56240;DHT22;42154;51.992;5.896;2023-02-28T10:18:04;4.60;85.90
56240;DHT22;42154;51.992;5.896;2023-02-28T10:20:34;4.70;85.80
56240;DHT22;42154;51.992;5.896;2023-02-28T10:23:27;4.70;84.30
56240;DHT22;42154;51.992;5.896;2023-02-28T10:26:14;4.70;83.30
56240;DHT22;42154;51.992;5.896;2023-02-28T10:28:44;4.70;84.10
56240;DHT22;42154;51.992;5.896;2023-02-28T10:31:18;4.70;84.90
56240;DHT22;42154;51.992;5.896;2023-02-28T10:33:45;4.80;84.50
56240;DHT22;42154;51.992;5.896;2023-02-28T10:36:17;4.90;83.90
56240;DHT22;42154;51.992;5.896;2023-02-28T10:38:44;4.90;84.20
56240;DHT22;42154;51.992;5.896;2023-02-28T10:41:13;5.00;84.70
56240;DHT22;42154;51.992;5.896;2023-02-28T10:43:41;5.00;84.00
56240;DHT22;42154;51.992;5.896;2023-02-28T10:48:57;5.00;83.60
56240;DHT22;42154;51.992;5.896;2023-02-28T10:51:25;5.10;83.50
56240;DHT22;42154;51.992;5.896;2023-02-28T10:53:52;5.10;83.80
56240;DHT22;42154;51.992;5.896;2023-02-28T10:56:26;5.20;84.00
56240;DHT22;42154;51.992;5.896;2023-02-28T10:58:56;5.20;83.70
56240;DHT22;42154;51.992;5.896;2023-02-28T11:01:36;5.30;83.80
56240;DHT22;42154;51.992;5.896;2023-02-28T11:04:03;5.30;83.50
56240;DHT22;42154;51.992;5.896;2023-02-28T11:06:34;5.30;82.50
56240;DHT22;42154;51.992;5.896;2023-02-28T11:11:47;5.40;83.80
56240;DHT22;42154;51.992;5.896;2023-02-28T11:14:27;5.40;84.10
56240;DHT22;42154;51.992;5.896;2023-02-28T11:16:54;5.50;84.30
56240;DHT22;42154;51.992;5.896;2023-02-28T11:19:43;5.40;82.30
56240;DHT22;42154;51.992;5.896;2023-02-28T11:22:10;5.50;83.10
56240;DHT22;42154;51.992;5.896;2023-02-28T11:24:46;5.40;80.40
56240;DHT22;42154;51.992;5.896;2023-02-28T11:30:27;5.40;81.80
56240;DHT22;42154;51.992;5.896;2023-02-28T11:32:53;5.40;80.20
56240;DHT22;42154;51.992;5.896;2023-02-28T11:35:39;5.40;78.80
56240;DHT22;42154;51.992;5.896;2023-02-28T11:38:12;5.30;79.70
56240;DHT22;42154;51.992;5.896;2023-02-28T11:41:05;5.30;81.00
56240;DHT22;42154;51.992;5.896;2023-02-28T11:47:04;5.40;77.70
56240;DHT22;42154;51.992;5.896;2023-02-28T11:52:36;5.40;80.00
56240;DHT22;42154;51.992;5.896;2023-02-28T12:00:48;5.70;79.70
56240;DHT22;42154;51.992;5.896;2023-02-28T12:11:09;5.90;79.40
56240;DHT22;42154;51.992;5.896;2023-02-28T12:22:28;6.00;76.20
56240;DHT22;42154;51.992;5.896;2023-02-28T12:27:59;5.80;74.50
56240;DHT22;42154;51.992;5.896;2023-02-28T12:30:32;5.80;74.30
56240;DHT22;42154;51.992;5.896;2023-02-28T12:33:06;5.80;75.50
56240;DHT22;42154;51.992;5.896;2023-02-28T12:35:52;5.90;76.10
56240;DHT22;42154;51.992;5.896;2023-02-28T12:38:36;5.90;75.10
56240;DHT22;42154;51.992;5.896;2023-02-28T12:41:20;6.00;76.70
56240;DHT22;42154;51.992;5.896;2023-02-28T12:43:55;6.10;77.40
56240;DHT22;42154;51.992;5.896;2023-02-28T12:46:23;6.10;76.70
56240;DHT22;42154;51.992;5.896;2023-02-28T12:48:55;6.20;76.10
56240;DHT22;42154;51.992;5.896;2023-02-28T12:51:24;6.20;75.10
56240;DHT22;42154;51.992;5.896;2023-02-28T12:57:13;6.30;74.50
56240;DHT22;42154;51.992;5.896;2023-02-28T12:59:53;6.30;75.00
56240;DHT22;42154;51.992;5.896;2023-02-28T13:10:45;6.30;73.20
56240;DHT22;42154;51.992;5.896;2023-02-28T13:13:17;6.30;71.60
56240;DHT22;42154;51.992;5.896;2023-02-28T13:16:07;6.30;72.70
56240;DHT22;42154;51.992;5.896;2023-02-28T13:18:45;6.30;72.20
56240;DHT22;42154;51.992;5.896;2023-02-28T13:21:28;6.30;70.40
56240;DHT22;42154;51.992;5.896;2023-02-28T13:24:03;6.40;71.20
56240;DHT22;42154;51.992;5.896;2023-02-28T13:42:47;6.40;71.10
56240;DHT22;42154;51.992;5.896;2023-02-28T13:45:26;6.40;69.70
56240;DHT22;42154;51.992;5.896;2023-02-28T13:47:54;6.40;70.00
56240;DHT22;42154;51.992;5.896;2023-02-28T13:55:53;6.60;72.10
56240;DHT22;42154;51.992;5.896;2023-02-28T14:06:53;6.70;72.50
56240;DHT22;42154;51.992;5.896;2023-02-28T14:09:39;6.70;72.30
56240;DHT22;42154;51.992;5.896;2023-02-28T14:15:33;6.90;72.20
56240;DHT22;42154;51.992;5.896;2023-02-28T14:18:06;6.80;71.70
56240;DHT22;42154;51.992;5.896;2023-02-28T14:20:36;6.70;72.50
56240;DHT22;42154;51.992;5.896;2023-02-28T14:26:07;6.80;73.00
56240;DHT22;42154;51.992;5.896;2023-02-28T14:28:47;6.80;72.40
56240;DHT22;42154;51.992;5.896;2023-02-28T14:31:18;6.80;70.80
56240;DHT22;42154;51.992;5.896;2023-02-28T14:36:40;6.70;71.30
56240;DHT22;42154;51.992;5.896;2023-02-28T14:41:38;6.70;70.90
56240;DHT22;42154;51.992;5.896;2023-02-28T14:46:42;6.80;71.80
56240;DHT22;42154;51.992;5.896;2023-02-28T14:49:21;6.80;71.00
56240;DHT22;42154;51.992;5.896;2023-02-28T14:52:06;6.80;70.30
56240;DHT22;42154;51.992;5.896;2023-02-28T14:54:36;6.80;69.20
56240;DHT22;42154;51.992;5.896;2023-02-28T14:57:02;6.70;69.90
56240;DHT22;42154;51.992;5.896;2023-02-28T14:59:34;6.80;70.60
56240;DHT22;42154;51.992;5.896;2023-02-28T15:02:23;6.70;69.90
56240;DHT22;42154;51.992;5.896;2023-02-28T15:05:01;6.70;70.70
56240;DHT22;42154;51.992;5.896;2023-02-28T15:07:28;6.70;71.10
56240;DHT22;42154;51.992;5.896;2023-02-28T15:10:11;6.70;71.00
56240;DHT22;42154;51.992;5.896;2023-02-28T15:12:39;6.80;70.30
56240;DHT22;42154;51.992;5.896;2023-02-28T15:15:06;6.70;69.50
56240;DHT22;42154;51.992;5.896;2023-02-28T15:17:34;6.70;70.40
56240;DHT22;42154;51.992;5.896;2023-02-28T15:20:00;6.70;71.10
56240;DHT22;42154;51.992;5.896;2023-02-28T15:22:31;6.80;71.90
56240;DHT22;42154;51.992;5.896;2023-02-28T15:24:59;6.80;71.40
56240;DHT22;42154;51.992;5.896;2023-02-28T15:27:27;6.80;71.10
56240;DHT22;42154;51.992;5.896;2023-02-28T15:30:00;6.80;70.10
56240;DHT22;42154;51.992;5.896;2023-02-28T15:32:38;6.80;69.30
56240;DHT22;42154;51.992;5.896;2023-02-28T15:38:00;6.70;68.80
56240;DHT22;42154;51.992;5.896;2023-02-28T15:45:35;6.50;68.10
56240;DHT22;42154;51.992;5.896;2023-02-28T15:48:15;6.50;69.00
56240;DHT22;42154;51.992;5.896;2023-02-28T15:50:41;6.40;69.80
56240;DHT22;42154;51.992;5.896;2023-02-28T15:53:14;6.50;69.90
56240;DHT22;42154;51.992;5.896;2023-02-28T15:55:40;6.50;70.10
56240;DHT22;42154;51.992;5.896;2023-02-28T15:58:10;6.50;70.10
56240;DHT22;42154;51.992;5.896;2023-02-28T16:00:38;6.50;70.50
56240;DHT22;42154;51.992;5.896;2023-02-28T16:03:27;6.50;71.00
56240;DHT22;42154;51.992;5.896;2023-02-28T16:06:38;6.50;70.80
56240;DHT22;42154;51.992;5.896;2023-02-28T16:09:10;6.50;70.80
56240;DHT22;42154;51.992;5.896;2023-02-28T16:11:40;6.30;71.50
56240;DHT22;42154;51.992;5.896;2023-02-28T16:14:15;6.40;71.50
56240;DHT22;42154;51.992;5.896;2023-02-28T16:16:43;6.30;71.10
56240;DHT22;42154;51.992;5.896;2023-02-28T16:19:09;6.30;70.50
56240;DHT22;42154;51.992;5.896;2023-02-28T16:21:35;6.20;70.80
56240;DHT22;42154;51.992;5.896;2023-02-28T16:24:01;6.20;71.20
56240;DHT22;42154;51.992;5.896;2023-02-28T16:26:27;6.20;71.50
56240;DHT22;42154;51.992;5.896;2023-02-28T16:28:54;6.10;71.90
56240;DHT22;42154;51.992;5.896;2023-02-28T16:31:21;6.10;71.70
56240;DHT22;42154;51.992;5.896;2023-02-28T16:33:46;6.10;72.40
56240;DHT22;42154;51.992;5.896;2023-02-28T16:36:15;6.10;72.60
56240;DHT22;42154;51.992;5.896;2023-02-28T16:38:40;6.00;72.50
56240;DHT22;42154;51.992;5.896;2023-02-28T16:41:06;6.00;72.70
56240;DHT22;42154;51.992;5.896;2023-02-28T16:43:32;5.90;72.60
56240;DHT22;42154;51.992;5.896;2023-02-28T16:45:58;5.90;72.70
56240;DHT22;42154;51.992;5.896;2023-02-28T16:48:24;5.80;72.80
56240;DHT22;42154;51.992;5.896;2023-02-28T16:50:51;5.80;73.30
56240;DHT22;42154;51.992;5.896;2023-02-28T16:53:16;5.70;72.80
56240;DHT22;42154;51.992;5.896;2023-02-28T16:55:42;5.70;73.00
56240;DHT22;42154;51.992;5.896;2023-02-28T16:58:15;5.60;73.40
56240;DHT22;42154;51.992;5.896;2023-02-28T17:00:43;5.60;73.80
56240;DHT22;42154;51.992;5.896;2023-02-28T17:03:26;5.50;74.30
56240;DHT22;42154;51.992;5.896;2023-02-28T17:05:52;5.50;74.60
56240;DHT22;42154;51.992;5.896;2023-02-28T17:08:18;5.40;74.80
56240;DHT22;42154;51.992;5.896;2023-02-28T17:10:44;5.40;75.00
56240;DHT22;42154;51.992;5.896;2023-02-28T17:13:10;5.30;75.20
56240;DHT22;42154;51.992;5.896;2023-02-28T17:15:37;5.30;75.60
56240;DHT22;42154;51.992;5.896;2023-02-28T17:18:03;5.30;75.70
56240;DHT22;42154;51.992;5.896;2023-02-28T17:20:29;5.20;75.70
56240;DHT22;42154;51.992;5.896;2023-02-28T17:22:56;5.20;76.00
56240;DHT22;42154;51.992;5.896;2023-02-28T17:25:23;5.10;76.10
56240;DHT22;42154;51.992;5.896;2023-02-28T17:27:49;5.10;76.30
56240;DHT22;42154;51.992;5.896;2023-02-28T17:30:22;5.00;76.40
56240;DHT22;42154;51.992;5.896;2023-02-28T17:32:48;5.00;76.60
56240;DHT22;42154;51.992;5.896;2023-02-28T17:35:14;4.90;77.40
56240;DHT22;42154;51.992;5.896;2023-02-28T17:37:41;4.90;77.20
56240;DHT22;42154;51.992;5.896;2023-02-28T17:40:14;4.70;77.40
56240;DHT22;42154;51.992;5.896;2023-02-28T17:42:41;4.70;77.40
56240;DHT22;42154;51.992;5.896;2023-02-28T17:45:07;4.70;77.60
56240;DHT22;42154;51.992;5.896;2023-02-28T17:47:33;4.60;77.60
56240;DHT22;42154;51.992;5.896;2023-02-28T17:49:58;4.60;77.50
56240;DHT22;42154;51.992;5.896;2023-02-28T17:52:24;4.60;77.40
56240;DHT22;42154;51.992;5.896;2023-02-28T17:54:50;4.60;77.30
56240;DHT22;42154;51.992;5.896;2023-02-28T17:57:16;4.50;77.40
56240;DHT22;42154;51.992;5.896;2023-02-28T17:59:42;4.40;77.60
56240;DHT22;42154;51.992;5.896;2023-02-28T18:02:14;4.40;77.70
56240;DHT22;42154;51.992;5.896;2023-02-28T18:04:40;4.40;77.80
56240;DHT22;42154;51.992;5.896;2023-02-28T18:07:09;4.30;77.90
56240;DHT22;42154;51.992;5.896;2023-02-28T18:09:36;4.30;78.00
56240;DHT22;42154;51.992;5.896;2023-02-28T18:12:02;4.30;77.80
56240;DHT22;42154;51.992;5.896;2023-02-28T18:14:28;4.30;77.90
56240;DHT22;42154;51.992;5.896;2023-02-28T18:16:54;4.30;78.00
56240;DHT22;42154;51.992;5.896;2023-02-28T18:19:20;4.20;78.00
56240;DHT22;42154;51.992;5.896;2023-02-28T18:21:48;4.20;78.00
56240;DHT22;42154;51.992;5.896;2023-02-28T18:24:16;4.20;78.20
56240;DHT22;42154;51.992;5.896;2023-02-28T18:26:42;4.20;78.50
56240;DHT22;42154;51.992;5.896;2023-02-28T18:29:14;4.10;78.60